Milan, MI

4:59 PM EDT on August 20, 2014 (GMT -0400)
Covington Drive | Change Station
CLOSE
Current Station
Personal Weather Station
Location: Saline, MI
Elevation: 810 ft
Nearby Weather Stations

Elev 810 ft 42.15 °N, 83.74 °W | Updated 4 minutes ago

Mostly Cloudy
Mostly Cloudy
78.8 °F
Feels Like 81 °F
N
2.2
Wind Variable Wind from NW
Gusts 3.1 mph

Today
High -- | Low -- °F
--% Chance of Precip.
Yesterday
High -- | Low -- °F
Precip. -- in
6:47 AM 8:27 PM
Waning Crescent, 19% visible
Pressure 29.88 in
Visibility 10.0 miles
Clouds Mostly Cloudy 10000 ft
Heat Index 81 °F
Dew Point 67 °F
Humidity 67%
Rainfall 0.23 in
Snow Depth Not available.
UV 3 out of 12
Pollen 9.40 out of 12
Ozone Good
PM2.5 Good
Flu Activity Not available.
METAR KARB 202053Z 27007KT 10SM BKN100 26/18 A2989 RMK AO2 SLP116 60001 T02610183 51002

More Conditions Fewer Conditions

Pressure 29.88 in
Visibility 10.0 miles
Clouds Mostly Cloudy 10000 ft
Heat Index 81 °F
Dew Point 67 °F
Humidity 67%
Rainfall 0.23 in
Snow Depth Not available.
UV 3 out of 12
Pollen 9.40 out of 12
Ozone Good
PM2.5 Good
Flu Activity Not available.
METAR KARB 202053Z 27007KT 10SM BKN100 26/18 A2989 RMK AO2 SLP116 60001 T02610183 51002

More Conditions Fewer Conditions

10-Day Weather Forecast

Almanac

Astronomy

Aug. 20, 2014 Rise Set
Actual Time 6:47 AM EDT 8:27 PM EDT
Civil Twilight 6:17 AM EDT 8:57 PM EDT
Nautical Twilight 5:41 AM EDT 9:33 PM EDT
Astronomical Twilight 5:03 AM EDT 10:11 PM EDT
Moon 2:24 AM EDT 5:13 PM EDT
Length of Visible Light 14h 39m
Length of Day
13h 40m
Tomorrow will be 2m 36s shorter.
Waning Crescent, 19% of the Moon is Illuminated
Today
Waning Crescent
Aug 25
New
Sep 2
First Quarter
Sep 8
Full
Sep 15
Last Quarter

Today's Extremes

State Highs State Lows

Community

WunderPhotos

Upload Photos

1,745,750 photos uploaded!

WunderBlogs® & News

Nearby

Air Quality

  Air Quality AQ Index Pollutant
Yesterday Moderate
PM2.5
Yesterday Good
OZONE
Current Good
OZONE
Current Good
PM2.5
Wednesday Moderate
PM2.5
Wednesday Good
OZONE
Thursday Moderate
PM2.5
Thursday Good
OZONE

Snow Depth

Station Depth Elevation
No new snow has been reported.

Earthquake Activity

City Distance Mag. Time & Date
No recent earthquake activity has been reported nearby.
Minimum magnitude displayed is 2.5.

Coastal Water Temperatures

Place Temperature
Marblehead, OH 73.0 °F

Nearby Weather Stations